createdAt,value
2023-03-06T00:00:01.877Z,79.32
2023-03-06T00:02:52.976Z,79.10
2023-03-06T00:05:35.011Z,79.31
2023-03-06T00:08:16.150Z,79.55
2023-03-06T00:11:07.427Z,79.65
2023-03-06T00:13:45.650Z,79.62
2023-03-06T00:16:27.912Z,79.84
2023-03-06T00:19:12.726Z,79.83
2023-03-06T00:21:44.233Z,80.02
2023-03-06T00:24:18.155Z,80.26
2023-03-06T00:27:10.081Z,80.15
2023-03-06T00:30:02.533Z,80.29
2023-03-06T00:32:46.014Z,79.90
2023-03-06T00:35:24.090Z,79.92
2023-03-06T00:37:59.723Z,79.68
2023-03-06T00:40:44.570Z,79.87
2023-03-06T00:43:35.376Z,80.13
2023-03-06T00:46:14.189Z,79.92
2023-03-06T00:49:05.010Z,79.80
2023-03-06T00:51:38.453Z,79.74
2023-03-06T00:54:23.514Z,79.60
2023-03-06T00:57:04.622Z,79.91
2023-03-06T00:59:55.726Z,79.51
2023-03-06T01:02:36.916Z,79.52
2023-03-06T01:05:11.637Z,79.41
2023-03-06T01:07:42.701Z,79.58
2023-03-06T01:10:33.958Z,79.49
2023-03-06T01:13:17.241Z,79.75
2023-03-06T01:16:05.922Z,79.77
2023-03-06T01:18:48.656Z,79.47
2023-03-06T01:21:22.501Z,79.61
2023-03-06T01:24:13.218Z,79.69
2023-03-06T01:27:04.120Z,80.01
2023-03-06T01:29:37.285Z,79.92
2023-03-06T01:32:22.634Z,79.96
2023-03-06T01:35:14.402Z,79.93
2023-03-06T01:38:05.260Z,79.79
2023-03-06T01:40:40.559Z,79.91
2023-03-06T01:43:32.040Z,79.90
2023-03-06T01:46:38.990Z,79.60
2023-03-06T01:49:14.052Z,79.33
2023-03-06T01:51:52.420Z,79.63
2023-03-06T01:54:46.211Z,79.29
2023-03-06T01:57:31.778Z,79.40
2023-03-06T02:00:08.185Z,79.39
2023-03-06T02:02:48.726Z,79.35
2023-03-06T02:05:20.122Z,79.99
2023-03-06T02:07:55.786Z,79.44
2023-03-06T02:10:58.462Z,79.56
2023-03-06T02:13:50.742Z,79.36
2023-03-06T02:16:42.983Z,79.48
2023-03-06T02:19:30.933Z,79.43
2023-03-06T02:22:23.433Z,79.25
2023-03-06T02:25:26.842Z,79.31
2023-03-06T02:27:58.333Z,79.38
2023-03-06T02:30:52.305Z,79.10
2023-03-06T02:33:43.295Z,79.39
2023-03-06T02:36:18.752Z,79.33
2023-03-06T02:39:00.522Z,79.19
2023-03-06T02:41:51.473Z,79.36
2023-03-06T02:44:42.318Z,79.22
2023-03-06T02:47:33.163Z,78.72
2023-03-06T02:50:17.280Z,78.60
2023-03-06T02:53:08.323Z,78.53
2023-03-06T02:55:59.249Z,78.43
2023-03-06T02:58:50.210Z,78.08
2023-03-06T03:01:31.249Z,78.24
2023-03-06T03:04:22.313Z,77.93
2023-03-06T03:07:13.268Z,77.88
2023-03-06T03:10:04.323Z,77.89
2023-03-06T03:12:37.813Z,77.96
2023-03-06T03:15:28.760Z,77.91
2023-03-06T03:18:19.592Z,77.92
2023-03-06T03:21:12.398Z,77.48
2023-03-06T03:23:52.585Z,77.22
2023-03-06T03:26:35.796Z,77.38
2023-03-06T03:29:26.674Z,77.41
2023-03-06T03:32:17.772Z,77.38
2023-03-06T03:35:11.604Z,77.31
2023-03-06T03:38:02.546Z,77.24
2023-03-06T03:40:53.410Z,77.13
2023-03-06T03:43:45.074Z,77.40
2023-03-06T03:46:26.397Z,77.37
2023-03-06T03:49:17.262Z,77.53
2023-03-06T03:52:08.391Z,77.07
2023-03-06T03:54:59.576Z,77.47
2023-03-06T03:57:43.266Z,77.68
2023-03-06T04:00:34.133Z,77.40
2023-03-06T04:03:24.945Z,77.59
2023-03-06T04:05:59.464Z,77.66
2023-03-06T04:08:50.643Z,78.05
2023-03-06T04:11:41.469Z,78.05
2023-03-06T04:14:32.353Z,78.13
2023-03-06T04:17:22.231Z,78.19
2023-03-06T04:20:14.584Z,78.32
2023-03-06T04:22:55.428Z,78.44
2023-03-06T04:25:46.737Z,78.10
2023-03-06T04:28:37.628Z,78.38
2023-03-06T04:31:28.581Z,78.23
2023-03-06T04:34:19.436Z,78.54
2023-03-06T04:37:13.923Z,78.42
2023-03-06T04:40:05.291Z,78.49
2023-03-06T04:42:55.353Z,78.42
2023-03-06T04:45:46.319Z,78.15
2023-03-06T04:48:27.392Z,78.23
2023-03-06T04:50:58.152Z,78.56
2023-03-06T04:53:48.960Z,78.57
2023-03-06T04:56:39.843Z,78.84
2023-03-06T04:59:30.676Z,78.99
2023-03-06T05:02:22.141Z,78.71
2023-03-06T05:05:14.906Z,78.89
2023-03-06T05:08:06.256Z,79.13
2023-03-06T05:10:59.942Z,79.51
2023-03-06T05:13:40.940Z,79.66
2023-03-06T05:16:32.033Z,79.70
2023-03-06T05:19:22.988Z,79.90
2023-03-06T05:22:13.954Z,80.20
2023-03-06T05:24:49.596Z,79.97
2023-03-06T05:27:40.963Z,80.24
2023-03-06T05:30:23.217Z,80.28
2023-03-06T05:33:13.100Z,80.30
2023-03-06T05:35:49.726Z,80.60
2023-03-06T05:38:23.353Z,80.73
2023-03-06T05:41:15.689Z,80.59
2023-03-06T05:44:07.051Z,81.22
2023-03-06T05:46:58.273Z,81.13
2023-03-06T05:49:49.326Z,81.23
2023-03-06T05:52:39.547Z,81.37
2023-03-06T05:55:30.974Z,81.79
2023-03-06T05:58:21.917Z,81.84
2023-03-06T06:01:13.403Z,82.25
2023-03-06T06:04:04.450Z,82.36
2023-03-06T06:06:57.164Z,82.47
2023-03-06T06:09:47.206Z,82.59
2023-03-06T06:12:38.180Z,82.43
2023-03-06T06:15:29.272Z,82.76
2023-03-06T06:18:12.584Z,82.52
2023-03-06T06:21:07.336Z,82.97
2023-03-06T06:24:18.958Z,83.14
2023-03-06T06:27:10.287Z,83.19
2023-03-06T06:30:01.294Z,83.46
2023-03-06T06:32:32.421Z,83.51
2023-03-06T06:35:17.750Z,83.78
2023-03-06T06:37:57.483Z,83.67
2023-03-06T06:41:19.089Z,83.81
2023-03-06T06:43:49.462Z,84.06
2023-03-06T06:47:20.902Z,84.10
2023-03-06T06:49:54.730Z,84.60
2023-03-06T06:52:45.828Z,84.54
2023-03-06T06:55:27.885Z,84.53
2023-03-06T06:58:19.047Z,84.62
2023-03-06T07:01:07.834Z,84.52
2023-03-06T07:03:49.929Z,84.73
2023-03-06T07:06:39.346Z,84.72
2023-03-06T07:09:31.525Z,84.72
2023-03-06T07:12:16.148Z,84.51
2023-03-06T07:15:09.427Z,84.76
2023-03-06T07:18:01.415Z,84.83
2023-03-06T07:20:54.102Z,84.63
2023-03-06T07:23:35.377Z,84.72
2023-03-06T07:26:26.562Z,84.92
2023-03-06T07:29:18.009Z,84.89
2023-03-06T07:32:19.253Z,84.94
2023-03-06T07:35:19.800Z,85.03
2023-03-06T07:38:12.395Z,85.16
2023-03-06T07:40:46.290Z,84.94
2023-03-06T07:43:30.386Z,85.11
2023-03-06T07:46:05.211Z,84.93
2023-03-06T07:48:56.172Z,84.59
2023-03-06T07:51:47.365Z,84.67
2023-03-06T07:54:38.284Z,84.31
2023-03-06T07:57:29.331Z,84.29
2023-03-06T08:00:21.759Z,84.51
2023-03-06T08:03:13.003Z,83.67
2023-03-06T08:06:05.468Z,82.35
2023-03-06T08:08:57.632Z,82.10
2023-03-06T08:11:48.652Z,82.23
2023-03-06T08:14:24.820Z,81.36
2023-03-06T08:17:10.391Z,81.16
2023-03-06T08:20:01.770Z,80.81
2023-03-06T08:22:43.317Z,80.68
2023-03-06T08:25:33.911Z,79.90
2023-03-06T08:28:25.272Z,79.51
2023-03-06T08:31:22.626Z,78.84
2023-03-06T08:34:57.259Z,78.78
2023-03-06T08:37:10.482Z,78.88
2023-03-06T08:39:55.059Z,78.26
2023-03-06T08:42:46.082Z,78.49
2023-03-06T08:45:24.562Z,78.89
2023-03-06T08:48:15.999Z,78.65
2023-03-06T08:51:09.677Z,79.44
2023-03-06T08:53:43.434Z,79.51
2023-03-06T08:56:35.649Z,79.65
2023-03-06T08:59:09.523Z,79.96
2023-03-06T09:02:00.820Z,79.82
2023-03-06T09:04:51.892Z,79.78
2023-03-06T09:07:23.131Z,79.94
2023-03-06T09:10:04.910Z,80.57
2023-03-06T09:12:56.112Z,81.07
2023-03-06T09:15:27.495Z,81.07
2023-03-06T09:18:01.914Z,81.10
2023-03-06T09:20:52.177Z,81.34
2023-03-06T09:23:34.250Z,81.82
2023-03-06T09:26:14.602Z,81.67
2023-03-06T09:29:05.684Z,82.19
2023-03-06T09:31:56.861Z,82.79
2023-03-06T09:34:30.895Z,83.52
2023-03-06T09:37:06.870Z,83.97
2023-03-06T09:39:51.325Z,84.13
2023-03-06T09:42:41.428Z,83.51
2023-03-06T09:45:15.566Z,83.95
2023-03-06T09:48:12.552Z,84.28
2023-03-06T09:51:10.288Z,83.87
2023-03-06T09:54:13.965Z,83.86
2023-03-06T09:57:09.763Z,83.37
2023-03-06T09:59:55.894Z,82.76
2023-03-06T10:02:37.339Z,82.04
2023-03-06T10:05:24.579Z,81.79
2023-03-06T10:08:02.625Z,81.82
2023-03-06T10:11:00.283Z,81.29
2023-03-06T10:13:47.169Z,80.96
2023-03-06T10:16:33.876Z,80.96
2023-03-06T10:19:29.060Z,80.76
2023-03-06T10:22:24.749Z,79.93
2023-03-06T10:25:04.309Z,79.85
2023-03-06T10:28:04.606Z,79.56
2023-03-06T10:30:51.887Z,79.10
2023-03-06T10:33:55.495Z,77.34
2023-03-06T10:36:46.570Z,76.51
2023-03-06T10:39:38.243Z,77.02
2023-03-06T10:42:18.333Z,76.52
2023-03-06T10:45:14.930Z,75.25
2023-03-06T10:51:31.242Z,76.16
2023-03-06T10:54:22.596Z,76.67
2023-03-06T10:57:28.489Z,76.12
2023-03-06T11:00:30.808Z,75.98
2023-03-06T11:03:21.273Z,75.28
2023-03-06T11:06:04.603Z,76.01
2023-03-06T11:08:40.037Z,76.34
2023-03-06T11:11:16.986Z,76.59
2023-03-06T11:14:17.170Z,76.14
2023-03-06T11:17:01.976Z,76.40
2023-03-06T11:19:41.717Z,76.01
2023-03-06T11:22:20.916Z,75.78
2023-03-06T11:25:16.986Z,75.63
2023-03-06T11:28:00.695Z,75.27
2023-03-06T11:30:48.561Z,75.32
2023-03-06T11:33:51.256Z,75.61
2023-03-06T11:36:51.150Z,75.47
2023-03-06T11:39:48.068Z,75.48
2023-03-06T11:42:44.713Z,75.97
2023-03-06T11:45:39.544Z,76.92
2023-03-06T11:48:29.600Z,76.37
2023-03-06T11:51:17.047Z,75.99
2023-03-06T11:53:59.788Z,76.96
2023-03-06T11:56:43.960Z,77.41
2023-03-06T11:59:44.783Z,77.93
2023-03-06T12:02:20.433Z,78.25
2023-03-06T12:05:02.493Z,78.54
2023-03-06T12:08:03.304Z,78.88
2023-03-06T12:13:58.962Z,78.98
2023-03-06T12:16:59.907Z,78.63
2023-03-06T12:19:55.003Z,79.01
2023-03-06T12:22:39.614Z,79.01
2023-03-06T12:25:36.558Z,79.36
2023-03-06T12:28:39.544Z,80.69
2023-03-06T12:31:41.198Z,81.74
2023-03-06T12:34:47.720Z,81.17
2023-03-06T12:37:46.882Z,81.14
2023-03-06T12:40:43.123Z,82.43
2023-03-06T12:43:47.591Z,82.55
2023-03-06T12:46:23.750Z,79.19
2023-03-06T12:49:31.935Z,77.53
2023-03-06T12:52:09.699Z,76.88
2023-03-06T12:54:44.586Z,76.64
2023-03-06T12:57:35.515Z,76.42
2023-03-06T13:01:04.817Z,75.54
2023-03-06T13:04:05.123Z,76.06
2023-03-06T13:06:54.261Z,75.61
2023-03-06T13:09:37.650Z,75.36
2023-03-06T13:12:26.157Z,75.47
2023-03-06T13:15:38.023Z,74.56
2023-03-06T13:18:56.287Z,72.77
2023-03-06T13:22:04.336Z,72.03
2023-03-06T13:24:38.497Z,70.41
2023-03-06T13:28:01.180Z,69.21
2023-03-06T13:30:53.266Z,67.55
2023-03-06T13:33:55.926Z,66.83
2023-03-06T13:36:34.127Z,65.65
2023-03-06T13:39:15.359Z,64.88
2023-03-06T13:42:00.248Z,65.49
2023-03-06T13:44:48.899Z,67.20
2023-03-06T13:48:06.533Z,68.57
2023-03-06T13:50:52.503Z,68.85
2023-03-06T13:54:20.281Z,67.53
2023-03-06T13:57:26.319Z,63.17
2023-03-06T14:00:54.190Z,62.77
2023-03-06T14:04:11.833Z,64.07
2023-03-06T14:06:54.030Z,65.52
2023-03-06T14:09:47.933Z,65.53
2023-03-06T14:12:42.089Z,66.39
2023-03-06T14:15:23.659Z,66.50
2023-03-06T14:18:21.776Z,66.40
2023-03-06T14:20:58.274Z,66.40
2023-03-06T14:23:48.204Z,64.45
2023-03-06T14:26:30.566Z,63.85
2023-03-06T14:29:03.428Z,64.10
2023-03-06T14:31:56.416Z,64.91
2023-03-06T14:34:49.412Z,66.23
2023-03-06T14:37:32.392Z,67.90
2023-03-06T14:40:13.908Z,69.70
2023-03-06T14:43:19.440Z,71.53
2023-03-06T14:45:56.332Z,73.07
2023-03-06T14:48:42.087Z,74.47
2023-03-06T14:51:36.434Z,75.88
2023-03-06T14:54:29.991Z,77.50
2023-03-06T14:57:06.122Z,77.90
2023-03-06T14:59:43.945Z,78.68
2023-03-06T15:02:27.742Z,78.72
2023-03-06T15:05:20.681Z,78.64
2023-03-06T15:07:54.221Z,79.11
2023-03-06T15:10:30.480Z,79.69
2023-03-06T15:13:24.971Z,80.01
2023-03-06T15:16:08.339Z,80.39
2023-03-06T15:19:00.350Z,80.54
2023-03-06T15:21:41.938Z,81.06
2023-03-06T15:24:34.895Z,81.00
2023-03-06T15:27:17.986Z,80.58
2023-03-06T15:30:25.129Z,80.42
2023-03-06T15:33:27.199Z,80.16
2023-03-06T15:36:04.252Z,80.03
2023-03-06T15:38:56.521Z,79.97
2023-03-06T15:41:42.180Z,80.24
2023-03-06T15:44:35.876Z,80.49
2023-03-06T15:47:27.178Z,80.97
2023-03-06T15:50:21.255Z,80.95
2023-03-06T15:53:15.577Z,81.22
2023-03-06T15:55:56.284Z,80.86
2023-03-06T15:58:47.484Z,81.29
2023-03-06T16:01:43.523Z,81.46
2023-03-06T16:04:27.692Z,81.00
2023-03-06T16:07:17.503Z,81.59
2023-03-06T16:09:48.457Z,81.43
2023-03-06T16:12:24.560Z,81.17
2023-03-06T16:14:59.060Z,80.47
2023-03-06T16:17:53.757Z,80.33
2023-03-06T16:20:33.429Z,81.00
2023-03-06T16:23:24.651Z,81.21
2023-03-06T16:26:08.260Z,81.62
2023-03-06T16:28:52.078Z,82.08
2023-03-06T16:31:26.114Z,82.15
2023-03-06T16:34:07.244Z,82.78
2023-03-06T16:36:50.938Z,83.30
2023-03-06T16:39:25.480Z,83.41
2023-03-06T16:42:06.957Z,83.72
2023-03-06T16:44:52.212Z,84.47
2023-03-06T16:47:25.786Z,84.18
2023-03-06T16:50:20.138Z,84.42
2023-03-06T16:53:13.366Z,84.56
2023-03-06T16:55:44.483Z,84.12
2023-03-06T16:58:25.469Z,83.62
2023-03-06T17:01:20.246Z,82.03
2023-03-06T17:03:54.318Z,81.66
2023-03-06T17:06:31.471Z,81.21
2023-03-06T17:09:11.716Z,81.49
2023-03-06T17:12:03.017Z,82.84
2023-03-06T17:14:52.861Z,83.46
2023-03-06T17:17:43.838Z,83.54
2023-03-06T17:20:26.341Z,83.88
2023-03-06T17:23:07.285Z,83.44
2023-03-06T17:26:15.121Z,83.71
2023-03-06T17:28:48.742Z,83.66
2023-03-06T17:31:31.017Z,83.28
2023-03-06T17:34:04.068Z,83.07
2023-03-06T17:36:35.092Z,83.09
2023-03-06T17:39:08.813Z,82.95
2023-03-06T17:41:50.263Z,82.28
2023-03-06T17:44:41.607Z,81.96
2023-03-06T17:47:32.955Z,81.33
2023-03-06T17:51:32.553Z,81.07
2023-03-06T17:53:57.678Z,80.37
2023-03-06T17:56:47.174Z,80.50
2023-03-06T17:59:38.704Z,79.64
2023-03-06T18:02:17.141Z,79.49
2023-03-06T18:05:10.601Z,78.83
2023-03-06T18:07:46.170Z,78.34
2023-03-06T18:10:39.299Z,78.43
2023-03-06T18:13:14.939Z,78.19
2023-03-06T18:15:58.340Z,77.61
2023-03-06T18:18:35.691Z,76.83
2023-03-06T18:21:27.245Z,76.48
2023-03-06T18:24:01.468Z,76.29
2023-03-06T18:26:32.408Z,75.92
2023-03-06T18:29:05.199Z,75.59
2023-03-06T18:31:49.911Z,75.69
2023-03-06T18:34:41.190Z,76.25
2023-03-06T18:37:32.173Z,76.12
2023-03-06T18:40:24.870Z,76.48
2023-03-06T18:43:00.529Z,76.33
2023-03-06T18:45:57.772Z,76.80
2023-03-06T18:48:48.784Z,76.41
2023-03-06T18:51:39.945Z,76.25
2023-03-06T18:54:31.265Z,76.81
2023-03-06T18:57:18.091Z,76.34
2023-03-06T19:00:11.560Z,75.78
2023-03-06T19:02:52.807Z,75.42
2023-03-06T19:05:44.673Z,75.16
2023-03-06T19:08:36.580Z,74.94
2023-03-06T19:11:19.390Z,74.85
2023-03-06T19:13:50.284Z,74.89
2023-03-06T19:16:41.688Z,74.66
2023-03-06T19:19:26.427Z,74.64
2023-03-06T19:22:01.960Z,74.79
2023-03-06T19:24:52.979Z,74.65
2023-03-06T19:27:44.900Z,75.06
2023-03-06T19:30:36.474Z,74.92
2023-03-06T19:33:26.097Z,74.94
2023-03-06T19:36:18.795Z,74.99
2023-03-06T19:39:13.944Z,74.54
2023-03-06T19:41:55.320Z,74.99
2023-03-06T19:44:29.253Z,74.92
2023-03-06T19:47:20.713Z,75.22
2023-03-06T19:49:52.276Z,74.84
2023-03-06T19:52:21.748Z,75.04
2023-03-06T19:54:56.109Z,75.02
2023-03-06T19:57:46.102Z,75.19
2023-03-06T20:00:37.325Z,75.37
2023-03-06T20:03:28.427Z,75.65
2023-03-06T20:06:22.571Z,76.07
2023-03-06T20:09:14.334Z,76.45
2023-03-06T20:12:08.165Z,76.60
2023-03-06T20:14:49.617Z,76.66
2023-03-06T20:17:31.289Z,76.31
2023-03-06T20:20:21.256Z,76.43
2023-03-06T20:23:14.587Z,76.65
2023-03-06T20:26:10.145Z,76.47
2023-03-06T20:29:01.740Z,76.71
2023-03-06T20:31:53.481Z,76.63
2023-03-06T20:34:44.629Z,76.61
2023-03-06T20:37:35.728Z,76.76
2023-03-06T20:40:26.880Z,76.95
2023-03-06T20:43:18.015Z,77.01
2023-03-06T20:46:09.047Z,76.67
2023-03-06T20:49:00.242Z,77.18
2023-03-06T20:51:51.382Z,77.24
2023-03-06T20:54:33.505Z,77.71
2023-03-06T20:57:06.728Z,77.79
2023-03-06T20:59:57.754Z,77.57
2023-03-06T21:02:48.854Z,77.72
2023-03-06T21:05:40.209Z,77.89
2023-03-06T21:08:22.470Z,77.78
2023-03-06T21:11:13.853Z,78.12
2023-03-06T21:13:55.416Z,78.26
2023-03-06T21:16:45.279Z,77.99
2023-03-06T21:19:37.118Z,78.28
2023-03-06T21:22:30.310Z,78.22
2023-03-06T21:25:09.319Z,78.50
2023-03-06T21:27:54.295Z,78.46
2023-03-06T21:30:28.520Z,78.61
2023-03-06T21:33:01.789Z,78.77
2023-03-06T21:35:44.926Z,78.59
2023-03-06T21:38:16.440Z,78.32
2023-03-06T21:41:12.737Z,78.34
2023-03-06T21:44:05.825Z,78.62
2023-03-06T21:46:56.870Z,78.85
2023-03-06T21:49:49.360Z,78.53
2023-03-06T21:52:33.436Z,78.51
2023-03-06T21:55:24.975Z,78.58
2023-03-06T21:58:14.452Z,78.65
2023-03-06T22:01:09.155Z,78.68
2023-03-06T22:04:01.142Z,79.06
2023-03-06T22:06:52.465Z,79.01
2023-03-06T22:09:35.813Z,79.10
2023-03-06T22:12:26.932Z,79.03
2023-03-06T22:15:10.567Z,78.82
2023-03-06T22:18:01.651Z,78.89
2023-03-06T22:20:53.348Z,78.50
2023-03-06T22:23:44.957Z,78.50
2023-03-06T22:26:27.240Z,78.32
2023-03-06T22:29:16.833Z,78.68
2023-03-06T22:32:08.766Z,79.02
2023-03-06T22:34:59.861Z,78.82
2023-03-06T22:37:33.793Z,79.12
2023-03-06T22:40:24.788Z,79.36
2023-03-06T22:43:17.524Z,79.63
2023-03-06T22:46:05.729Z,79.65
2023-03-06T22:48:58.623Z,79.73
2023-03-06T22:51:38.729Z,80.06
2023-03-06T22:54:29.764Z,79.83
2023-03-06T22:57:00.752Z,79.79
2023-03-06T22:59:51.711Z,80.04
2023-03-06T23:02:44.013Z,79.68
2023-03-06T23:05:34.997Z,79.76
2023-03-06T23:08:26.204Z,79.71
2023-03-06T23:10:56.925Z,79.63
2023-03-06T23:13:46.234Z,80.03
2023-03-06T23:16:35.749Z,79.63
2023-03-06T23:19:25.071Z,80.05
2023-03-06T23:22:15.223Z,80.04
2023-03-06T23:25:06.122Z,80.08
2023-03-06T23:27:57.100Z,80.05
2023-03-06T23:30:48.186Z,79.78
2023-03-06T23:33:39.942Z,79.82
2023-03-06T23:36:31.567Z,79.95
2023-03-06T23:39:20.929Z,79.68
2023-03-06T23:42:11.793Z,79.52
2023-03-06T23:44:52.759Z,79.50
2023-03-06T23:47:43.602Z,79.35
2023-03-06T23:50:34.692Z,79.49
2023-03-06T23:53:17.166Z,79.15
2023-03-06T23:55:56.390Z,79.31
2023-03-06T23:58:38.772Z,79.19
